Terminal Aerodrome Forecast
Issued by NWS Sioux Falls, SD

Home | Current Version | Previous Version | Graphics & Text | Print | Product List | Glossary On
Versions: 1 2 3 4 5 6 7 8 9 10 11 12 13 14 15 16 17 18 19 20 21 22 23 24 25 26 27 28 29 30 31
000
FTUS43 KFSD 251120
TAFSUX
TAF
KSUX 251120Z 2512/2612 34015G22KT P6SM OVC009
      TEMPO 2512/2514 4SM -SN
     FM251700 34015G22KT P6SM BKN025
     FM252200 34010KT P6SM SCT040 BKN250
     FM260300 VRB03KT P6SM SCT100 BKN200=

USA.gov is the U.S. government's official web portal to all federal, state and local government web resources and services.